首页
METAR-TAF:

METAR-TAF

机场 :

扬斯敦 / Warren, 俄亥俄州, 美国

纬度: 41-15-16N, 经度: 080-40-26W, 海拔: 364米

当前天气观测

该预报发布于44分钟前的11:51 UTC
风速4节,风向东转东南
温度 -13°C
湿度 78%
气压 1025 hPa
能見度: 16.1公里
少量云层高于2500英尺
多云层高于11000英尺
阴天层高于25000英尺

METAR: KYNG 241151Z 11004KT 10SM FEW025 BKN110 OVC250 M13/M16 A3027 RMK AO2 SLP274 4/001 I6000 T11281156 11106 21133 58010 $

时间: 07:35 (12:35 UTC)

预报

该预报发布于58分钟前的11:37 UTC
预报有效从24日的 12点(UTC)到 25日的 12点(UTC)
风速3节,风向多变
能見度: 10公里
散云层高于2500英尺
多云层高于12000英尺
短暂存在
从 24日的 12点(UTC)到 24日的 14点(UTC)
多云层高于2500英尺
从 24日的 1900点(UTC)
风速5节,风向东转东南
能見度: 10公里
散云层高于3500英尺
阴天层高于8000英尺
从 25日的 0600点(UTC)
风速3节,风向多变
能見度: 10公里
散云层高于3000英尺
多云层高于12000英尺

TAF: KYNG 241137Z 2412/2512 VRB03KT P6SM SCT025 BKN120 TEMPO 2412/2414 BKN025 FM241900 12005KT P6SM SCT035 OVC080 FM250600 VRB03KT P6SM SCT030 BKN120

超过4000个机场的气象观测和天气预报(METAR&TAF报告)。

可查询的气象台以黄色和红色小点在地图上表示。

将鼠标移到小点上方,可查看气象台名称。

然后点击查看天气观测和预报。

如需切换地图:点击带黑十字的绿色按钮放大地图;点击带横线的绿色按钮缩小地图;或者点击绿色箭头查看邻近地区的地图。


METAR-TAF: